createdAt,value
2022-08-02T00:00:15.753Z,20.32
2022-08-02T00:02:43.977Z,20.65
2022-08-02T00:05:12.370Z,20.92
2022-08-02T00:07:41.322Z,21.10
2022-08-02T00:10:10.466Z,21.36
2022-08-02T00:12:39.712Z,21.32
2022-08-02T00:15:09.374Z,21.44
2022-08-02T00:17:37.024Z,21.28
2022-08-02T00:20:05.680Z,21.46
2022-08-02T00:22:33.369Z,21.13
2022-08-02T00:25:00.871Z,21.30
2022-08-02T00:27:28.394Z,21.02
2022-08-02T00:29:57.338Z,20.86
2022-08-02T00:32:25.299Z,20.77
2022-08-02T00:34:53.114Z,21.13
2022-08-02T00:37:20.683Z,21.30
2022-08-02T00:39:48.179Z,21.20
2022-08-02T00:42:16.549Z,21.04
2022-08-02T00:44:44.208Z,21.08
2022-08-02T00:47:14.981Z,20.90
2022-08-02T00:49:47.399Z,21.15
2022-08-02T00:52:15.190Z,21.12
2022-08-02T00:54:42.890Z,21.16
2022-08-02T00:57:10.556Z,21.31
2022-08-02T00:59:38.186Z,21.26
2022-08-02T01:02:05.900Z,21.33
2022-08-02T01:04:34.806Z,20.98
2022-08-02T01:07:12.927Z,21.25
2022-08-02T01:09:41.944Z,21.00
2022-08-02T01:12:10.117Z,21.10
2022-08-02T01:14:38.513Z,21.08
2022-08-02T01:17:09.893Z,21.00
2022-08-02T01:19:48.248Z,20.82
2022-08-02T01:22:59.885Z,20.68
2022-08-02T01:26:15.015Z,20.37
2022-08-02T01:28:50.240Z,20.76
2022-08-02T01:31:23.637Z,20.83
2022-08-02T01:33:58.252Z,20.82
2022-08-02T01:36:29.011Z,20.79
2022-08-02T01:38:57.905Z,20.66
2022-08-02T01:41:28.050Z,20.45
2022-08-02T01:44:00.318Z,20.22
2022-08-02T01:46:29.995Z,20.25
2022-08-02T01:48:59.090Z,20.13
2022-08-02T01:51:43.035Z,20.18
2022-08-02T01:54:13.647Z,20.07
2022-08-02T01:56:42.716Z,19.90
2022-08-02T01:59:13.936Z,20.06
2022-08-02T02:01:43.645Z,19.94
2022-08-02T02:04:11.277Z,19.97
2022-08-02T02:06:39.086Z,19.86
2022-08-02T02:09:07.616Z,19.65
2022-08-02T02:12:11.031Z,19.79
2022-08-02T02:14:25.917Z,19.50
2022-08-02T02:16:54.612Z,19.55
2022-08-02T02:19:24.024Z,19.63
2022-08-02T02:21:51.669Z,19.60
2022-08-02T02:24:19.229Z,19.56
2022-08-02T02:26:52.440Z,19.54
2022-08-02T02:29:22.816Z,19.47
2022-08-02T02:31:54.122Z,19.18
2022-08-02T02:34:27.583Z,18.93
2022-08-02T02:36:57.387Z,19.19
2022-08-02T02:39:27.170Z,18.89
2022-08-02T02:41:57.801Z,18.48
2022-08-02T02:44:26.713Z,18.07
2022-08-02T02:46:56.623Z,18.25
2022-08-02T02:49:25.296Z,18.48
2022-08-02T02:51:54.024Z,18.25
2022-08-02T02:54:30.060Z,18.20
2022-08-02T02:57:02.458Z,18.73
2022-08-02T02:59:30.639Z,18.98
2022-08-02T03:01:59.537Z,19.04
2022-08-02T03:04:56.425Z,18.92
2022-08-02T03:07:17.402Z,18.77
2022-08-02T03:09:45.115Z,18.86
2022-08-02T03:12:19.999Z,18.96
2022-08-02T03:14:49.450Z,18.91
2022-08-02T03:17:18.434Z,18.92
2022-08-02T03:19:46.503Z,18.85
2022-08-02T03:22:14.153Z,18.98
2022-08-02T03:24:41.782Z,18.95
2022-08-02T03:27:09.280Z,18.81
2022-08-02T03:29:36.752Z,18.71
2022-08-02T03:32:05.080Z,18.87
2022-08-02T03:34:33.972Z,18.74
2022-08-02T03:37:03.337Z,18.84
2022-08-02T03:39:33.297Z,18.73
2022-08-02T03:42:01.890Z,18.78
2022-08-02T03:44:29.859Z,18.88
2022-08-02T03:46:58.584Z,18.85
2022-08-02T03:49:26.591Z,18.91
2022-08-02T03:51:56.157Z,18.93
2022-08-02T03:54:34.459Z,18.72
2022-08-02T03:57:11.813Z,18.78
2022-08-02T03:59:43.085Z,18.92
2022-08-02T04:02:11.435Z,19.05
2022-08-02T04:04:39.556Z,19.17
2022-08-02T04:07:08.400Z,19.13
2022-08-02T04:09:35.980Z,18.89
2022-08-02T04:12:03.566Z,19.04
2022-08-02T04:14:31.659Z,18.90
2022-08-02T04:17:07.066Z,18.78
2022-08-02T04:19:39.779Z,18.77
2022-08-02T04:22:15.232Z,18.81
2022-08-02T04:24:49.844Z,18.97
2022-08-02T04:27:49.289Z,19.48
2022-08-02T04:30:07.546Z,20.23
2022-08-02T04:32:36.448Z,20.96
2022-08-02T04:35:18.798Z,21.51
2022-08-02T04:38:05.550Z,22.30
2022-08-02T04:40:37.232Z,22.80
2022-08-02T04:43:04.793Z,23.33
2022-08-02T04:45:32.665Z,23.87
2022-08-02T04:48:07.391Z,24.51
2022-08-02T04:50:34.946Z,25.34
2022-08-02T04:53:04.211Z,26.31
2022-08-02T04:55:31.704Z,27.25
2022-08-02T04:57:59.699Z,27.90
2022-08-02T05:00:28.510Z,28.42
2022-08-02T05:02:57.477Z,29.21
2022-08-02T05:05:25.221Z,29.55
2022-08-02T05:07:52.732Z,29.99
2022-08-02T05:10:22.032Z,30.57
2022-08-02T05:12:49.710Z,30.26
2022-08-02T05:15:18.479Z,30.68
2022-08-02T05:17:48.023Z,31.05
2022-08-02T05:20:17.178Z,31.09
2022-08-02T05:22:45.094Z,31.17
2022-08-02T05:25:13.046Z,30.70
2022-08-02T05:27:43.193Z,30.66
2022-08-02T05:30:11.961Z,30.86
2022-08-02T05:32:50.442Z,31.53
2022-08-02T05:35:20.502Z,32.15
2022-08-02T05:37:48.375Z,31.98
2022-08-02T05:40:16.178Z,31.58
2022-08-02T05:42:46.309Z,31.67
2022-08-02T05:45:14.043Z,31.89
2022-08-02T05:47:41.551Z,32.52
2022-08-02T05:50:10.760Z,33.29
2022-08-02T05:52:47.091Z,33.34
2022-08-02T05:55:18.494Z,32.47
2022-08-02T05:57:54.274Z,33.54
2022-08-02T06:00:22.901Z,32.29
2022-08-02T06:03:06.114Z,31.66
2022-08-02T06:05:36.627Z,31.52
2022-08-02T06:08:08.368Z,31.54
2022-08-02T06:10:37.871Z,32.15
2022-08-02T06:13:14.232Z,31.51
2022-08-02T06:15:53.458Z,29.85
2022-08-02T06:18:27.919Z,30.31
2022-08-02T06:20:59.042Z,28.61
2022-08-02T06:23:57.519Z,28.02
2022-08-02T06:26:27.114Z,27.59
2022-08-02T06:28:58.617Z,28.18
2022-08-02T06:31:26.577Z,28.04
2022-08-02T06:33:54.356Z,29.35
2022-08-02T06:36:33.113Z,29.73
2022-08-02T06:39:05.376Z,30.38
2022-08-02T06:41:40.774Z,31.52
2022-08-02T06:44:44.455Z,32.76
2022-08-02T06:47:11.390Z,33.26
2022-08-02T06:49:52.437Z,32.84
2022-08-02T06:52:27.796Z,34.07
2022-08-02T06:54:57.057Z,34.08
2022-08-02T06:57:24.879Z,33.31
2022-08-02T06:59:53.748Z,35.10
2022-08-02T07:02:21.498Z,34.02
2022-08-02T07:04:49.101Z,33.36
2022-08-02T07:07:16.640Z,34.31
2022-08-02T07:09:56.498Z,34.49
2022-08-02T07:12:29.936Z,35.42
2022-08-02T07:14:59.458Z,35.36
2022-08-02T07:17:27.152Z,34.87
2022-08-02T07:19:54.660Z,36.29
2022-08-02T07:22:23.621Z,37.48
2022-08-02T07:24:51.415Z,38.58
2022-08-02T07:27:18.951Z,39.89
2022-08-02T07:29:47.546Z,39.71
2022-08-02T07:32:16.855Z,38.90
2022-08-02T07:34:51.254Z,38.73
2022-08-02T07:37:35.486Z,36.19
2022-08-02T07:40:14.912Z,37.32
2022-08-02T07:42:47.361Z,38.06
2022-08-02T07:45:15.796Z,38.89
2022-08-02T07:47:45.397Z,38.02
2022-08-02T07:50:15.053Z,37.19
2022-08-02T07:52:43.804Z,38.24
2022-08-02T07:55:12.555Z,39.11
2022-08-02T07:57:46.189Z,39.74
2022-08-02T08:00:17.104Z,39.82
2022-08-02T08:02:46.602Z,40.29
2022-08-02T08:05:14.456Z,40.63
2022-08-02T08:07:41.932Z,38.65
2022-08-02T08:10:10.526Z,38.23
2022-08-02T08:12:38.106Z,38.41
2022-08-02T08:15:06.657Z,38.84
2022-08-02T08:17:35.023Z,38.27
2022-08-02T08:20:05.492Z,38.52
2022-08-02T08:22:33.128Z,38.23
2022-08-02T08:25:00.604Z,37.42
2022-08-02T08:27:28.063Z,36.76
2022-08-02T08:29:55.572Z,36.50
2022-08-02T08:32:23.467Z,36.52
2022-08-02T08:34:51.745Z,38.24
2022-08-02T08:37:20.615Z,38.56
2022-08-02T08:39:57.374Z,37.54
2022-08-02T08:42:26.669Z,35.98
2022-08-02T08:44:55.966Z,35.64
2022-08-02T08:47:25.027Z,35.65
2022-08-02T08:49:55.824Z,35.61
2022-08-02T08:52:26.608Z,36.47
2022-08-02T08:54:55.483Z,36.33
2022-08-02T08:57:23.515Z,35.55
2022-08-02T08:59:51.304Z,35.81
2022-08-02T09:02:20.608Z,37.34
2022-08-02T09:04:55.256Z,38.26
2022-08-02T09:07:24.345Z,39.34
2022-08-02T09:09:51.836Z,39.78
2022-08-02T09:12:22.263Z,40.27
2022-08-02T09:14:50.631Z,39.26
2022-08-02T09:17:18.839Z,38.47
2022-08-02T09:20:06.649Z,39.25
2022-08-02T09:22:35.478Z,38.60
2022-08-02T09:25:03.007Z,38.24
2022-08-02T09:27:37.214Z,39.51
2022-08-02T09:30:11.718Z,40.23
2022-08-02T09:32:45.835Z,40.90
2022-08-02T09:35:14.010Z,41.26
2022-08-02T09:37:45.685Z,40.63
2022-08-02T09:40:16.204Z,39.82
2022-08-02T09:42:59.209Z,38.88
2022-08-02T09:45:31.804Z,37.43
2022-08-02T09:47:59.352Z,34.82
2022-08-02T09:50:26.891Z,34.95
2022-08-02T09:52:57.778Z,36.10
2022-08-02T09:55:25.967Z,34.55
2022-08-02T09:57:53.778Z,33.94
2022-08-02T10:00:37.008Z,34.66
2022-08-02T10:03:21.523Z,35.86
2022-08-02T10:05:56.092Z,36.84
2022-08-02T10:08:32.999Z,37.47
2022-08-02T10:11:01.898Z,36.43
2022-08-02T10:13:31.229Z,35.65
2022-08-02T10:15:58.931Z,35.59
2022-08-02T10:18:38.773Z,36.39
2022-08-02T10:21:11.237Z,35.68
2022-08-02T10:23:41.415Z,34.88
2022-08-02T10:26:09.891Z,36.15
2022-08-02T10:28:38.485Z,35.65
2022-08-02T10:31:08.490Z,35.74
2022-08-02T10:33:39.151Z,35.46
2022-08-02T10:36:09.484Z,35.28
2022-08-02T10:38:37.703Z,34.93
2022-08-02T10:41:07.965Z,34.43
2022-08-02T10:43:44.588Z,34.35
2022-08-02T10:46:22.960Z,34.68
2022-08-02T10:52:07.413Z,34.54
2022-08-02T10:54:37.779Z,34.04
2022-08-02T10:57:19.370Z,34.02
2022-08-02T10:59:47.114Z,34.70
2022-08-02T11:02:15.250Z,36.46
2022-08-02T11:05:03.634Z,37.51
2022-08-02T11:07:37.378Z,37.34
2022-08-02T11:10:28.787Z,36.71
2022-08-02T11:13:03.448Z,37.12
2022-08-02T11:15:31.624Z,38.23
2022-08-02T11:17:59.923Z,37.96
2022-08-02T11:20:28.424Z,37.15
2022-08-02T11:23:16.718Z,37.62
2022-08-02T11:26:03.201Z,38.12
2022-08-02T11:28:33.381Z,37.08
2022-08-02T11:31:02.884Z,36.95
2022-08-02T11:33:32.882Z,37.01
2022-08-02T11:36:05.363Z,37.02
2022-08-02T11:38:33.224Z,36.65
2022-08-02T11:41:06.020Z,35.02
2022-08-02T11:43:36.118Z,34.16
2022-08-02T11:46:05.044Z,33.89
2022-08-02T11:48:34.540Z,33.80
2022-08-02T11:51:10.263Z,34.19
2022-08-02T11:53:45.921Z,33.46
2022-08-02T11:56:14.660Z,33.58
2022-08-02T11:59:04.855Z,33.23
2022-08-02T12:01:36.833Z,33.62
2022-08-02T12:04:13.269Z,33.52
2022-08-02T12:06:40.965Z,33.74
2022-08-02T12:09:17.979Z,33.94
2022-08-02T12:11:49.659Z,34.14
2022-08-02T12:14:19.036Z,33.88
2022-08-02T12:17:04.702Z,34.23
2022-08-02T12:19:32.244Z,34.54
2022-08-02T12:22:18.438Z,34.35
2022-08-02T12:24:49.163Z,34.38
2022-08-02T12:27:33.269Z,34.80
2022-08-02T12:30:06.341Z,35.63
2022-08-02T12:32:34.380Z,36.58
2022-08-02T12:35:08.440Z,38.44
2022-08-02T12:37:36.792Z,39.87
2022-08-02T12:40:24.247Z,41.39
2022-08-02T12:42:56.224Z,41.28
2022-08-02T12:45:25.876Z,40.72
2022-08-02T12:47:54.763Z,40.72
2022-08-02T12:50:25.502Z,38.89
2022-08-02T12:53:05.264Z,39.03
2022-08-02T12:55:59.851Z,39.47
2022-08-02T12:58:26.097Z,40.26
2022-08-02T13:00:57.016Z,39.45
2022-08-02T13:04:11.903Z,39.80
2022-08-02T13:06:42.159Z,39.36
2022-08-02T13:09:00.897Z,38.27
2022-08-02T13:11:28.829Z,36.70
2022-08-02T13:13:56.859Z,36.57
2022-08-02T13:16:30.866Z,37.21
2022-08-02T13:18:59.036Z,37.41
2022-08-02T13:21:40.166Z,37.51
2022-08-02T13:24:20.799Z,36.93
2022-08-02T13:26:58.788Z,37.99
2022-08-02T13:29:26.306Z,38.48
2022-08-02T13:31:55.142Z,38.01
2022-08-02T13:34:22.647Z,38.77
2022-08-02T13:36:50.599Z,38.70
2022-08-02T13:39:18.086Z,37.26
2022-08-02T13:41:45.559Z,38.01
2022-08-02T13:44:13.084Z,38.65
2022-08-02T13:46:45.340Z,39.43
2022-08-02T13:49:19.456Z,39.07
2022-08-02T13:51:47.769Z,37.65
2022-08-02T13:54:15.407Z,37.33
2022-08-02T13:56:43.007Z,37.55
2022-08-02T13:59:54.507Z,38.05
2022-08-02T14:01:58.550Z,37.79
2022-08-02T14:04:29.623Z,36.99
2022-08-02T14:06:58.958Z,36.81
2022-08-02T14:09:27.362Z,37.13
2022-08-02T14:11:54.982Z,38.15
2022-08-02T14:14:22.503Z,35.66
2022-08-02T14:16:50.012Z,34.72
2022-08-02T14:19:17.622Z,34.99
2022-08-02T14:21:47.917Z,34.32
2022-08-02T14:24:16.281Z,35.48
2022-08-02T14:26:44.093Z,37.18
2022-08-02T14:29:13.613Z,38.43
2022-08-02T14:31:44.382Z,37.95
2022-08-02T14:34:12.380Z,38.36
2022-08-02T14:36:39.890Z,38.79
2022-08-02T14:39:09.072Z,37.48
2022-08-02T14:41:58.082Z,35.90
2022-08-02T14:44:25.060Z,33.51
2022-08-02T14:46:53.023Z,32.84
2022-08-02T14:49:24.513Z,32.54
2022-08-02T14:51:52.490Z,32.94
2022-08-02T14:54:28.165Z,32.48
2022-08-02T14:56:59.574Z,33.41
2022-08-02T14:59:27.241Z,33.59
2022-08-02T15:01:54.979Z,33.21
2022-08-02T15:04:22.836Z,33.16
2022-08-02T15:06:50.342Z,34.30
2022-08-02T15:09:18.012Z,34.02
2022-08-02T15:11:47.420Z,34.20
2022-08-02T15:14:17.081Z,34.52
2022-08-02T15:16:56.452Z,34.56
2022-08-02T15:19:30.303Z,34.37
2022-08-02T15:22:16.167Z,33.63
2022-08-02T15:24:45.226Z,33.33
2022-08-02T15:27:14.793Z,33.91
2022-08-02T15:29:43.180Z,34.28
2022-08-02T15:32:11.647Z,34.23
2022-08-02T15:34:39.728Z,34.28
2022-08-02T15:37:07.239Z,34.31
2022-08-02T15:39:34.769Z,34.62
2022-08-02T15:42:02.280Z,34.59
2022-08-02T15:44:31.148Z,34.71
2022-08-02T15:46:59.096Z,34.10
2022-08-02T15:49:26.659Z,33.98
2022-08-02T15:51:54.611Z,33.86
2022-08-02T15:54:22.173Z,33.34
2022-08-02T15:56:49.709Z,31.10
2022-08-02T15:59:17.607Z,30.63
2022-08-02T16:01:47.980Z,30.34
2022-08-02T16:04:16.507Z,30.59
2022-08-02T16:06:44.808Z,30.78
2022-08-02T16:09:12.534Z,30.12
2022-08-02T16:11:40.592Z,30.48
2022-08-02T16:14:08.104Z,30.99
2022-08-02T16:16:37.060Z,31.14
2022-08-02T16:19:37.501Z,30.15
2022-08-02T16:21:54.691Z,30.79
2022-08-02T16:24:22.824Z,30.66
2022-08-02T16:26:50.556Z,31.10
2022-08-02T16:29:19.693Z,32.04
2022-08-02T16:31:47.266Z,32.95
2022-08-02T16:34:16.649Z,33.23
2022-08-02T16:36:44.576Z,32.52
2022-08-02T16:39:12.634Z,33.04
2022-08-02T16:41:50.888Z,33.78
2022-08-02T16:44:27.710Z,33.86
2022-08-02T16:50:05.626Z,34.88
2022-08-02T16:52:34.651Z,34.82
2022-08-02T16:55:02.153Z,34.73
2022-08-02T17:00:24.930Z,33.18
2022-08-02T17:02:52.438Z,32.58
2022-08-02T17:05:21.278Z,31.99
2022-08-02T17:08:07.646Z,32.22
2022-08-02T17:10:37.421Z,32.44
2022-08-02T17:13:11.658Z,32.39
2022-08-02T17:18:27.595Z,32.19
2022-08-02T17:20:57.856Z,32.03
2022-08-02T17:24:04.585Z,32.07
2022-08-02T17:26:13.159Z,32.24
2022-08-02T17:29:14.209Z,31.86
2022-08-02T17:31:45.514Z,31.78
2022-08-02T17:34:14.140Z,31.75
2022-08-02T17:36:49.811Z,31.90
2022-08-02T17:39:17.558Z,32.13
2022-08-02T17:41:49.065Z,31.91
2022-08-02T17:44:37.681Z,31.71
2022-08-02T17:47:06.167Z,31.65
2022-08-02T17:49:35.341Z,31.54
2022-08-02T17:52:48.177Z,31.38
2022-08-02T17:54:55.336Z,31.38
2022-08-02T17:57:22.859Z,31.26
2022-08-02T18:00:03.589Z,31.19
2022-08-02T18:02:31.994Z,31.03
2022-08-02T18:04:59.522Z,30.99
2022-08-02T18:07:40.673Z,30.91
2022-08-02T18:10:16.187Z,30.84
2022-08-02T18:12:45.550Z,30.65
2022-08-02T18:15:14.381Z,30.44
2022-08-02T18:18:01.513Z,30.20
2022-08-02T18:20:29.030Z,29.75
2022-08-02T18:22:58.849Z,29.55
2022-08-02T18:25:37.566Z,29.49
2022-08-02T18:28:11.709Z,29.29
2022-08-02T18:30:39.315Z,29.16
2022-08-02T18:33:55.059Z,28.80
2022-08-02T18:35:55.659Z,28.48
2022-08-02T18:38:26.730Z,28.44
2022-08-02T18:40:55.579Z,28.38
2022-08-02T18:43:25.432Z,28.25
2022-08-02T18:46:06.875Z,28.05
2022-08-02T18:48:44.205Z,27.87
2022-08-02T18:51:14.812Z,27.71
2022-08-02T18:53:43.796Z,27.57
2022-08-02T18:56:19.395Z,27.43
2022-08-02T18:58:51.954Z,27.32
2022-08-02T19:01:21.864Z,27.22
2022-08-02T19:04:00.441Z,27.14
2022-08-02T19:06:29.046Z,26.97
2022-08-02T19:09:11.231Z,26.81
2022-08-02T19:11:41.433Z,26.55
2022-08-02T19:14:27.004Z,26.53
2022-08-02T19:16:56.165Z,26.40
2022-08-02T19:19:23.832Z,26.28
2022-08-02T19:22:26.582Z,26.23
2022-08-02T19:24:47.061Z,26.15
2022-08-02T19:27:15.522Z,26.10
2022-08-02T19:29:49.050Z,26.02
2022-08-02T19:32:42.422Z,25.91
2022-08-02T19:35:19.186Z,25.91
2022-08-02T19:37:59.193Z,25.82
2022-08-02T19:40:29.592Z,25.89
2022-08-02T19:44:23.517Z,25.84
2022-08-02T19:45:50.370Z,25.75
2022-08-02T19:48:23.665Z,25.65
2022-08-02T19:50:56.194Z,25.65
2022-08-02T19:53:29.190Z,25.51
2022-08-02T19:56:03.052Z,25.37
2022-08-02T19:58:31.115Z,25.29
2022-08-02T20:01:00.116Z,25.16
2022-08-02T20:03:50.875Z,25.07
2022-08-02T20:06:17.690Z,25.01
2022-08-02T20:08:53.366Z,24.97
2022-08-02T20:11:27.846Z,24.99
2022-08-02T20:13:55.388Z,24.87
2022-08-02T20:16:27.640Z,24.75
2022-08-02T20:18:55.681Z,24.67
2022-08-02T20:21:35.557Z,24.59
2022-08-02T20:24:06.742Z,24.55
2022-08-02T20:26:35.857Z,24.40
2022-08-02T20:29:06.045Z,24.38
2022-08-02T20:31:36.154Z,24.25
2022-08-02T20:34:04.949Z,24.25
2022-08-02T20:36:34.776Z,24.15
2022-08-02T20:39:02.391Z,23.99
2022-08-02T20:41:37.261Z,23.95
2022-08-02T20:44:30.738Z,23.85
2022-08-02T20:46:59.201Z,23.70
2022-08-02T20:49:40.855Z,23.69
2022-08-02T20:52:23.820Z,23.54
2022-08-02T20:54:52.235Z,23.18
2022-08-02T20:57:19.741Z,23.38
2022-08-02T21:00:10.325Z,23.38
2022-08-02T21:02:37.831Z,23.28
2022-08-02T21:05:07.920Z,23.20
2022-08-02T21:10:33.314Z,23.05
2022-08-02T21:13:01.198Z,22.95
2022-08-02T21:15:48.077Z,22.85
2022-08-02T21:18:23.580Z,22.85
2022-08-02T21:21:04.087Z,22.84
2022-08-02T21:23:31.563Z,22.85
2022-08-02T21:26:04.276Z,22.82
2022-08-02T21:31:20.639Z,22.63
2022-08-02T21:33:57.264Z,22.66
2022-08-02T21:36:31.085Z,22.60
2022-08-02T21:38:59.935Z,22.52
2022-08-02T21:41:39.952Z,22.58
2022-08-02T21:44:16.392Z,22.21
2022-08-02T21:46:46.520Z,21.68
2022-08-02T21:49:17.276Z,21.70
2022-08-02T21:51:49.327Z,21.98
2022-08-02T21:54:20.154Z,22.12
2022-08-02T21:57:06.125Z,22.00
2022-08-02T21:59:35.007Z,22.04
2022-08-02T22:02:03.850Z,22.03
2022-08-02T22:04:36.083Z,22.04
2022-08-02T22:07:03.607Z,21.73
2022-08-02T22:09:44.650Z,21.70
2022-08-02T22:12:17.599Z,21.60
2022-08-02T22:14:49.673Z,21.68
2022-08-02T22:17:50.737Z,21.63
2022-08-02T22:20:12.529Z,21.67
2022-08-02T22:22:40.220Z,21.47
2022-08-02T22:25:10.121Z,21.61
2022-08-02T22:28:35.976Z,21.41
2022-08-02T22:30:37.136Z,21.44
2022-08-02T22:33:33.130Z,21.36
2022-08-02T22:36:02.095Z,21.45
2022-08-02T22:38:29.936Z,21.36
2022-08-02T22:40:57.406Z,21.49
2022-08-02T22:43:24.904Z,21.51
2022-08-02T22:45:52.385Z,21.50
2022-08-02T22:48:21.207Z,21.45
2022-08-02T22:50:52.371Z,21.39
2022-08-02T22:53:35.547Z,21.39
2022-08-02T22:56:03.630Z,21.33
2022-08-02T22:58:32.080Z,21.27
2022-08-02T22:58:34.851Z,34.47
2022-08-02T22:58:50.009Z,33.94
2022-08-02T22:58:50.792Z,32.32
2022-08-02T22:59:01.821Z,23.09
2022-08-02T22:59:12.330Z,22.76
2022-08-02T23:01:00.015Z,21.20
2022-08-02T23:03:29.583Z,21.11
2022-08-02T23:05:57.562Z,21.03
2022-08-02T23:08:25.437Z,20.95
2022-08-02T23:10:53.016Z,20.90
2022-08-02T23:13:21.763Z,20.88
2022-08-02T23:16:09.109Z,20.87
2022-08-02T23:18:55.698Z,20.84
2022-08-02T23:21:46.171Z,20.81
2022-08-02T23:24:10.904Z,20.70
2022-08-02T23:26:38.556Z,20.72
2022-08-02T23:29:06.049Z,20.65
2022-08-02T23:31:38.228Z,20.56
2022-08-02T23:34:07.315Z,20.58
2022-08-02T23:36:35.121Z,20.65
2022-08-02T23:39:02.674Z,20.61
2022-08-02T23:41:30.167Z,20.51
2022-08-02T23:44:13.082Z,20.56
2022-08-02T23:46:42.826Z,20.43
2022-08-02T23:49:12.854Z,20.36
2022-08-02T23:51:40.476Z,20.49
2022-08-02T23:54:08.106Z,20.51
2022-08-02T23:56:35.639Z,20.54
2022-08-02T23:59:03.191Z,20.58
